sensor_id;sensor_type;location;lat;lon;timestamp;pressure;altitude;pressure_sealevel;temperature;humidity
23899;BME280;20544;50.018;20.010;2023-01-19T00:01:24;97447.64;;;0.93;100.00
23899;BME280;20544;50.018;20.010;2023-01-19T00:04:41;97448.64;;;0.92;100.00
23899;BME280;20544;50.018;20.010;2023-01-19T00:07:59;97450.13;;;0.95;100.00
23899;BME280;20544;50.018;20.010;2023-01-19T00:11:17;97450.32;;;1.02;100.00
23899;BME280;20544;50.018;20.010;2023-01-19T00:14:33;97451.77;;;0.96;100.00
23899;BME280;20544;50.018;20.010;2023-01-19T00:17:50;97458.05;;;0.85;100.00
23899;BME280;20544;50.018;20.010;2023-01-19T00:21:07;97456.13;;;0.69;100.00
23899;BME280;20544;50.018;20.010;2023-01-19T00:24:23;97464.33;;;0.74;100.00
23899;BME280;20544;50.018;20.010;2023-01-19T00:27:41;97461.71;;;0.74;100.00
23899;BME280;20544;50.018;20.010;2023-01-19T00:30:58;97457.62;;;0.72;100.00
23899;BME280;20544;50.018;20.010;2023-01-19T00:34:18;97451.95;;;0.76;100.00
23899;BME280;20544;50.018;20.010;2023-01-19T00:37:35;97464.40;;;0.83;100.00
23899;BME280;20544;50.018;20.010;2023-01-19T00:40:53;97462.44;;;0.85;100.00
23899;BME280;20544;50.018;20.010;2023-01-19T00:44:11;97475.64;;;0.83;100.00
23899;BME280;20544;50.018;20.010;2023-01-19T00:47:29;97461.95;;;0.81;100.00
23899;BME280;20544;50.018;20.010;2023-01-19T00:50:49;97464.40;;;0.83;100.00
23899;BME280;20544;50.018;20.010;2023-01-19T00:54:05;97467.20;;;0.89;100.00
23899;BME280;20544;50.018;20.010;2023-01-19T00:57:21;97460.34;;;0.88;100.00
23899;BME280;20544;50.018;20.010;2023-01-19T01:00:38;97454.47;;;0.86;100.00
23899;BME280;20544;50.018;20.010;2023-01-19T01:03:54;97461.18;;;0.89;100.00
23899;BME280;20544;50.018;20.010;2023-01-19T01:07:11;97458.92;;;0.94;100.00
23899;BME280;20544;50.018;20.010;2023-01-19T01:10:29;97458.60;;;0.97;100.00
23899;BME280;20544;50.018;20.010;2023-01-19T01:13:45;97456.99;;;0.96;100.00
23899;BME280;20544;50.018;20.010;2023-01-19T01:17:02;97452.73;;;0.95;100.00
23899;BME280;20544;50.018;20.010;2023-01-19T01:20:20;97444.74;;;0.96;100.00
23899;BME280;20544;50.018;20.010;2023-01-19T01:23:39;97444.55;;;0.90;100.00
23899;BME280;20544;50.018;20.010;2023-01-19T01:26:55;97441.87;;;0.82;100.00
23899;BME280;20544;50.018;20.010;2023-01-19T01:30:14;97434.20;;;0.80;100.00
23899;BME280;20544;50.018;20.010;2023-01-19T01:33:31;97436.29;;;0.76;100.00
23899;BME280;20544;50.018;20.010;2023-01-19T01:36:49;97433.68;;;0.76;100.00
23899;BME280;20544;50.018;20.010;2023-01-19T01:40:09;97426.98;;;0.74;100.00
23899;BME280;20544;50.018;20.010;2023-01-19T01:43:43;97429.42;;;0.75;100.00
23899;BME280;20544;50.018;20.010;2023-01-19T01:47:01;97432.39;;;0.80;100.00
23899;BME280;20544;50.018;20.010;2023-01-19T01:50:21;97434.71;;;0.84;100.00
23899;BME280;20544;50.018;20.010;2023-01-19T01:53:40;97416.73;;;0.80;100.00
23899;BME280;20544;50.018;20.010;2023-01-19T01:56:59;97420.02;;;0.83;100.00
23899;BME280;20544;50.018;20.010;2023-01-19T02:00:25;97412.38;;;0.89;100.00
23899;BME280;20544;50.018;20.010;2023-01-19T02:03:44;97417.44;;;0.91;100.00
23899;BME280;20544;50.018;20.010;2023-01-19T02:07:00;97417.09;;;0.86;100.00
23899;BME280;20544;50.018;20.010;2023-01-19T02:10:31;97417.77;;;0.88;100.00
23899;BME280;20544;50.018;20.010;2023-01-19T02:14:04;97422.47;;;0.84;100.00
23899;BME280;20544;50.018;20.010;2023-01-19T02:17:21;97414.70;;;0.92;100.00
23899;BME280;20544;50.018;20.010;2023-01-19T02:20:39;97412.61;;;0.96;100.00
23899;BME280;20544;50.018;20.010;2023-01-19T02:24:00;97414.54;;;0.94;100.00
23899;BME280;20544;50.018;20.010;2023-01-19T02:27:18;97409.48;;;0.92;100.00
23899;BME280;20544;50.018;20.010;2023-01-19T02:30:37;97412.89;;;0.93;100.00
23899;BME280;20544;50.018;20.010;2023-01-19T02:33:56;97406.03;;;0.92;100.00
23899;BME280;20544;50.018;20.010;2023-01-19T02:37:13;97406.87;;;0.92;100.00
23899;BME280;20544;50.018;20.010;2023-01-19T02:40:32;97400.52;;;0.95;100.00
23899;BME280;20544;50.018;20.010;2023-01-19T02:43:49;97399.68;;;0.94;100.00
23899;BME280;20544;50.018;20.010;2023-01-19T02:47:07;97404.55;;;0.89;100.00
23899;BME280;20544;50.018;20.010;2023-01-19T02:54:29;97418.38;;;0.82;100.00
23899;BME280;20544;50.018;20.010;2023-01-19T02:58:03;97431.49;;;0.90;100.00
23899;BME280;20544;50.018;20.010;2023-01-19T03:01:25;97423.80;;;0.88;100.00
23899;BME280;20544;50.018;20.010;2023-01-19T03:04:52;97428.40;;;0.94;100.00
23899;BME280;20544;50.018;20.010;2023-01-19T03:08:14;97426.02;;;1.01;100.00
23899;BME280;20544;50.018;20.010;2023-01-19T03:11:37;97430.75;;;1.06;100.00
23899;BME280;20544;50.018;20.010;2023-01-19T03:14:57;97435.68;;;1.09;100.00
23899;BME280;20544;50.018;20.010;2023-01-19T03:18:17;97430.75;;;1.06;100.00
23899;BME280;20544;50.018;20.010;2023-01-19T03:21:38;97430.63;;;1.07;100.00
23899;BME280;20544;50.018;20.010;2023-01-19T03:25:00;97436.48;;;1.09;100.00
23899;BME280;20544;50.018;20.010;2023-01-19T03:28:18;97435.17;;;1.05;100.00
23899;BME280;20544;50.018;20.010;2023-01-19T03:31:37;97424.72;;;1.05;100.00
23899;BME280;20544;50.018;20.010;2023-01-19T03:34:59;97434.36;;;1.05;100.00
23899;BME280;20544;50.018;20.010;2023-01-19T03:38:20;97441.20;;;1.06;100.00
23899;BME280;20544;50.018;20.010;2023-01-19T03:41:40;97445.09;;;1.02;100.00
23899;BME280;20544;50.018;20.010;2023-01-19T03:44:59;97446.58;;;1.04;100.00
23899;BME280;20544;50.018;20.010;2023-01-19T03:48:18;97456.83;;;0.98;100.00
23899;BME280;20544;50.018;20.010;2023-01-19T03:51:37;97443.26;;;0.94;100.00
23899;BME280;20544;50.018;20.010;2023-01-19T03:54:55;97454.41;;;1.04;100.00
23899;BME280;20544;50.018;20.010;2023-01-19T03:58:12;97455.80;;;1.17;100.00
23899;BME280;20544;50.018;20.010;2023-01-19T04:01:28;97465.28;;;1.18;100.00
23899;BME280;20544;50.018;20.010;2023-01-19T04:04:45;97460.73;;;1.20;100.00
23899;BME280;20544;50.018;20.010;2023-01-19T04:08:01;97468.56;;;1.20;100.00
23899;BME280;20544;50.018;20.010;2023-01-19T04:11:22;97464.34;;;1.27;100.00
23899;BME280;20544;50.018;20.010;2023-01-19T04:14:41;97462.23;;;1.31;100.00
23899;BME280;20544;50.018;20.010;2023-01-19T04:18:00;97459.63;;;1.31;100.00
23899;BME280;20544;50.018;20.010;2023-01-19T04:21:18;97436.44;;;1.27;100.00
23899;BME280;20544;50.018;20.010;2023-01-19T04:24:34;97420.25;;;1.24;100.00
23899;BME280;20544;50.018;20.010;2023-01-19T04:27:53;97417.83;;;1.31;100.00
23899;BME280;20544;50.018;20.010;2023-01-19T04:31:10;97418.17;;;1.36;100.00
23899;BME280;20544;50.018;20.010;2023-01-19T04:34:27;97420.33;;;1.40;100.00
23899;BME280;20544;50.018;20.010;2023-01-19T04:37:43;97418.78;;;1.21;100.00
23899;BME280;20544;50.018;20.010;2023-01-19T04:41:00;97433.83;;;1.27;100.00
23899;BME280;20544;50.018;20.010;2023-01-19T04:44:16;97442.63;;;1.26;100.00
23899;BME280;20544;50.018;20.010;2023-01-19T04:47:32;97445.95;;;1.37;100.00
23899;BME280;20544;50.018;20.010;2023-01-19T04:50:51;97460.03;;;1.44;100.00
23899;BME280;20544;50.018;20.010;2023-01-19T04:54:08;97472.66;;;1.22;100.00
23899;BME280;20544;50.018;20.010;2023-01-19T04:57:24;97475.92;;;1.24;100.00
23899;BME280;20544;50.018;20.010;2023-01-19T05:00:40;97464.72;;;1.32;100.00
23899;BME280;20544;50.018;20.010;2023-01-19T05:03:58;97474.17;;;1.33;100.00
23899;BME280;20544;50.018;20.010;2023-01-19T05:07:14;97478.94;;;1.38;100.00
23899;BME280;20544;50.018;20.010;2023-01-19T05:10:30;97481.88;;;1.35;100.00
23899;BME280;20544;50.018;20.010;2023-01-19T05:13:46;97483.98;;;1.31;100.00
23899;BME280;20544;50.018;20.010;2023-01-19T05:17:02;97491.14;;;1.29;100.00
23899;BME280;20544;50.018;20.010;2023-01-19T05:20:19;97489.33;;;1.29;100.00
23899;BME280;20544;50.018;20.010;2023-01-19T05:23:35;97500.45;;;1.32;100.00
23899;BME280;20544;50.018;20.010;2023-01-19T05:26:51;97504.81;;;1.23;100.00
23899;BME280;20544;50.018;20.010;2023-01-19T05:30:10;97514.55;;;1.12;100.00
23899;BME280;20544;50.018;20.010;2023-01-19T05:33:27;97518.33;;;1.18;100.00
23899;BME280;20544;50.018;20.010;2023-01-19T05:36:44;97512.97;;;1.20;100.00
23899;BME280;20544;50.018;20.010;2023-01-19T05:40:00;97520.65;;;1.21;100.00
23899;BME280;20544;50.018;20.010;2023-01-19T05:43:17;97524.03;;;1.13;100.00
23899;BME280;20544;50.018;20.010;2023-01-19T05:46:36;97528.77;;;1.18;100.00
23899;BME280;20544;50.018;20.010;2023-01-19T05:49:55;97527.52;;;1.22;100.00
23899;BME280;20544;50.018;20.010;2023-01-19T05:53:11;97528.16;;;1.24;100.00
23899;BME280;20544;50.018;20.010;2023-01-19T05:56:28;97534.52;;;1.22;100.00
23899;BME280;20544;50.018;20.010;2023-01-19T05:59:46;97535.88;;;1.26;100.00
23899;BME280;20544;50.018;20.010;2023-01-19T06:03:03;97539.84;;;1.38;100.00
23899;BME280;20544;50.018;20.010;2023-01-19T06:06:19;97546.10;;;1.45;100.00
23899;BME280;20544;50.018;20.010;2023-01-19T06:09:35;97559.84;;;1.48;100.00
23899;BME280;20544;50.018;20.010;2023-01-19T06:12:52;97552.68;;;1.50;100.00
23899;BME280;20544;50.018;20.010;2023-01-19T06:16:10;97533.39;;;1.51;100.00
23899;BME280;20544;50.018;20.010;2023-01-19T06:19:27;97536.68;;;1.53;100.00
23899;BME280;20544;50.018;20.010;2023-01-19T06:22:45;97539.97;;;1.55;100.00
23899;BME280;20544;50.018;20.010;2023-01-19T06:26:02;97547.64;;;1.56;100.00
23899;BME280;20544;50.018;20.010;2023-01-19T06:29:19;97574.23;;;1.52;100.00
23899;BME280;20544;50.018;20.010;2023-01-19T06:32:36;97576.69;;;1.53;100.00
23899;BME280;20544;50.018;20.010;2023-01-19T06:35:54;97599.56;;;1.51;100.00
23899;BME280;20544;50.018;20.010;2023-01-19T06:39:11;97604.07;;;1.41;100.00
23899;BME280;20544;50.018;20.010;2023-01-19T06:42:28;97606.45;;;1.34;100.00
23899;BME280;20544;50.018;20.010;2023-01-19T06:45:46;97616.70;;;1.27;100.00
23899;BME280;20544;50.018;20.010;2023-01-19T06:49:04;97613.85;;;1.21;100.00
23899;BME280;20544;50.018;20.010;2023-01-19T06:52:20;97611.03;;;1.14;100.00
23899;BME280;20544;50.018;20.010;2023-01-19T06:55:37;97603.63;;;1.09;100.00
23899;BME280;20544;50.018;20.010;2023-01-19T06:58:53;97613.34;;;0.99;100.00
23899;BME280;20544;50.018;20.010;2023-01-19T07:02:10;97632.06;;;0.94;100.00
23899;BME280;20544;50.018;20.010;2023-01-19T07:05:32;97621.09;;;0.91;100.00
23899;BME280;20544;50.018;20.010;2023-01-19T07:08:49;97632.66;;;0.88;100.00
23899;BME280;20544;50.018;20.010;2023-01-19T07:12:08;97620.94;;;0.74;100.00
23899;BME280;20544;50.018;20.010;2023-01-19T07:15:33;97641.34;;;0.61;100.00
23899;BME280;20544;50.018;20.010;2023-01-19T07:18:50;97641.06;;;0.64;100.00
23899;BME280;20544;50.018;20.010;2023-01-19T07:22:06;97645.17;;;0.67;100.00
23899;BME280;20544;50.018;20.010;2023-01-19T07:25:36;97627.70;;;0.67;100.00
23899;BME280;20544;50.018;20.010;2023-01-19T07:28:59;97620.25;;;0.72;100.00
23899;BME280;20544;50.018;20.010;2023-01-19T07:32:15;97639.57;;;0.61;100.00
23899;BME280;20544;50.018;20.010;2023-01-19T07:35:35;97626.09;;;0.66;100.00
23899;BME280;20544;50.018;20.010;2023-01-19T07:38:51;97634.35;;;0.61;100.00
23899;BME280;20544;50.018;20.010;2023-01-19T07:42:11;97613.54;;;0.70;100.00
23899;BME280;20544;50.018;20.010;2023-01-19T07:45:28;97610.59;;;0.83;100.00
23899;BME280;20544;50.018;20.010;2023-01-19T07:52:14;97605.14;;;0.94;100.00
23899;BME280;20544;50.018;20.010;2023-01-19T07:55:32;97606.84;;;1.03;100.00
23899;BME280;20544;50.018;20.010;2023-01-19T07:58:48;97605.44;;;1.09;100.00
23899;BME280;20544;50.018;20.010;2023-01-19T08:02:11;97621.39;;;1.06;100.00
23899;BME280;20544;50.018;20.010;2023-01-19T08:05:28;97629.08;;;0.89;100.00
23899;BME280;20544;50.018;20.010;2023-01-19T08:08:45;97618.88;;;0.96;100.00
23899;BME280;20544;50.018;20.010;2023-01-19T08:12:03;97637.66;;;1.00;100.00
23899;BME280;20544;50.018;20.010;2023-01-19T08:15:21;97650.22;;;0.96;100.00
23899;BME280;20544;50.018;20.010;2023-01-19T08:18:38;97648.41;;;0.96;100.00
23899;BME280;20544;50.018;20.010;2023-01-19T08:21:56;97655.81;;;1.01;100.00
23899;BME280;20544;50.018;20.010;2023-01-19T08:25:19;97651.92;;;1.05;100.00
23899;BME280;20544;50.018;20.010;2023-01-19T08:28:37;97650.64;;;1.09;100.00
23899;BME280;20544;50.018;20.010;2023-01-19T08:32:03;97655.94;;;1.00;100.00
23899;BME280;20544;50.018;20.010;2023-01-19T08:35:30;97653.13;;;1.11;100.00
23899;BME280;20544;50.018;20.010;2023-01-19T08:39:00;97651.17;;;1.13;100.00
23899;BME280;20544;50.018;20.010;2023-01-19T08:42:23;97652.22;;;1.20;100.00
23899;BME280;20544;50.018;20.010;2023-01-19T08:45:42;97641.98;;;1.27;100.00
23899;BME280;20544;50.018;20.010;2023-01-19T08:49:01;97649.22;;;1.33;100.00
23899;BME280;20544;50.018;20.010;2023-01-19T08:52:19;97647.52;;;1.24;100.00
23899;BME280;20544;50.018;20.010;2023-01-19T08:55:37;97648.28;;;1.16;100.00
23899;BME280;20544;50.018;20.010;2023-01-19T08:58:54;97643.78;;;1.08;100.00
23899;BME280;20544;50.018;20.010;2023-01-19T09:02:12;97627.37;;;0.98;100.00
23899;BME280;20544;50.018;20.010;2023-01-19T09:05:37;97617.23;;;0.95;100.00
23899;BME280;20544;50.018;20.010;2023-01-19T09:08:53;97622.14;;;0.98;100.00
23899;BME280;20544;50.018;20.010;2023-01-19T09:12:10;97616.64;;;1.01;100.00
23899;BME280;20544;50.018;20.010;2023-01-19T09:15:28;97625.44;;;1.00;100.00
23899;BME280;20544;50.018;20.010;2023-01-19T09:18:45;97634.08;;;1.01;100.00
23899;BME280;20544;50.018;20.010;2023-01-19T09:22:02;97637.23;;;0.86;100.00
23899;BME280;20544;50.018;20.010;2023-01-19T09:25:18;97646.30;;;0.82;100.00
23899;BME280;20544;50.018;20.010;2023-01-19T09:28:35;97648.10;;;0.82;100.00
23899;BME280;20544;50.018;20.010;2023-01-19T09:31:52;97641.92;;;0.83;100.00
23899;BME280;20544;50.018;20.010;2023-01-19T09:35:09;97643.09;;;0.70;100.00
23899;BME280;20544;50.018;20.010;2023-01-19T09:38:26;97653.80;;;0.67;100.00
23899;BME280;20544;50.018;20.010;2023-01-19T09:41:46;97641.82;;;0.74;100.00
23899;BME280;20544;50.018;20.010;2023-01-19T09:45:07;97648.38;;;0.78;100.00
23899;BME280;20544;50.018;20.010;2023-01-19T09:48:34;97648.63;;;0.85;100.00
23899;BME280;20544;50.018;20.010;2023-01-19T09:51:59;97637.94;;;0.78;100.00
23899;BME280;20544;50.018;20.010;2023-01-19T09:55:21;97641.66;;;0.76;100.00
23899;BME280;20544;50.018;20.010;2023-01-19T09:58:40;97631.00;;;0.69;100.00
23899;BME280;20544;50.018;20.010;2023-01-19T10:02:01;97623.38;;;0.58;100.00
23899;BME280;20544;50.018;20.010;2023-01-19T10:05:28;97618.31;;;0.56;100.00
23899;BME280;20544;50.018;20.010;2023-01-19T10:08:51;97637.92;;;0.60;100.00
23899;BME280;20544;50.018;20.010;2023-01-19T10:12:13;97635.41;;;0.69;100.00
23899;BME280;20544;50.018;20.010;2023-01-19T10:15:38;97612.14;;;0.75;100.00
23899;BME280;20544;50.018;20.010;2023-01-19T10:19:11;97609.97;;;0.71;100.00
23899;BME280;20544;50.018;20.010;2023-01-19T10:22:33;97614.81;;;0.66;100.00
23899;BME280;20544;50.018;20.010;2023-01-19T10:25:51;97599.69;;;0.69;100.00
23899;BME280;20544;50.018;20.010;2023-01-19T10:29:11;97593.13;;;0.65;100.00
23899;BME280;20544;50.018;20.010;2023-01-19T10:32:33;97593.78;;;0.67;100.00
23899;BME280;20544;50.018;20.010;2023-01-19T10:35:55;97598.34;;;0.65;100.00
23899;BME280;20544;50.018;20.010;2023-01-19T10:39:14;97599.21;;;0.56;100.00
23899;BME280;20544;50.018;20.010;2023-01-19T10:42:31;97593.13;;;0.65;100.00
23899;BME280;20544;50.018;20.010;2023-01-19T10:45:50;97587.91;;;0.65;100.00
23899;BME280;20544;50.018;20.010;2023-01-19T10:49:17;97585.14;;;0.67;100.00
23899;BME280;20544;50.018;20.010;2023-01-19T10:52:40;97596.55;;;0.66;100.00
23899;BME280;20544;50.018;20.010;2023-01-19T10:56:14;97584.18;;;0.68;100.00
23899;BME280;20544;50.018;20.010;2023-01-19T10:59:35;97585.52;;;0.72;100.00
23899;BME280;20544;50.018;20.010;2023-01-19T11:02:54;97586.95;;;0.66;100.00
23899;BME280;20544;50.018;20.010;2023-01-19T11:06:27;97591.41;;;0.74;100.00
23899;BME280;20544;50.018;20.010;2023-01-19T11:09:45;97583.52;;;0.84;100.00
23899;BME280;20544;50.018;20.010;2023-01-19T11:13:03;97577.30;;;0.85;100.00
23899;BME280;20544;50.018;20.010;2023-01-19T11:16:30;97565.68;;;0.79;100.00
23899;BME280;20544;50.018;20.010;2023-01-19T11:20:00;97570.53;;;0.74;100.00
23899;BME280;20544;50.018;20.010;2023-01-19T11:23:26;97562.23;;;0.78;100.00
23899;BME280;20544;50.018;20.010;2023-01-19T11:26:47;97555.84;;;0.73;100.00
23899;BME280;20544;50.018;20.010;2023-01-19T11:30:16;97553.00;;;0.84;100.00
23899;BME280;20544;50.018;20.010;2023-01-19T11:33:40;97554.20;;;0.90;100.00
23899;BME280;20544;50.018;20.010;2023-01-19T11:37:00;97555.90;;;0.99;100.00
23899;BME280;20544;50.018;20.010;2023-01-19T11:40:19;97549.31;;;1.13;100.00
23899;BME280;20544;50.018;20.010;2023-01-19T11:43:36;97555.41;;;1.22;100.00
23899;BME280;20544;50.018;20.010;2023-01-19T11:46:59;97564.29;;;1.29;100.00
23899;BME280;20544;50.018;20.010;2023-01-19T11:50:26;97569.71;;;1.36;100.00
23899;BME280;20544;50.018;20.010;2023-01-19T11:53:50;97564.88;;;1.41;100.00
23899;BME280;20544;50.018;20.010;2023-01-19T11:57:11;97562.62;;;1.46;100.00
23899;BME280;20544;50.018;20.010;2023-01-19T12:00:33;97566.36;;;1.43;100.00
23899;BME280;20544;50.018;20.010;2023-01-19T12:03:57;97554.91;;;1.44;100.00
23899;BME280;20544;50.018;20.010;2023-01-19T12:10:35;97544.00;;;1.49;100.00
23899;BME280;20544;50.018;20.010;2023-01-19T12:13:56;97545.45;;;1.43;100.00
23899;BME280;20544;50.018;20.010;2023-01-19T12:17:18;97553.94;;;1.45;100.00
23899;BME280;20544;50.018;20.010;2023-01-19T12:20:38;97558.04;;;1.48;100.00
23899;BME280;20544;50.018;20.010;2023-01-19T12:24:06;97557.91;;;1.50;100.00
23899;BME280;20544;50.018;20.010;2023-01-19T12:27:35;97563.48;;;1.55;100.00
23899;BME280;20544;50.018;20.010;2023-01-19T12:31:00;97568.91;;;1.61;100.00
23899;BME280;20544;50.018;20.010;2023-01-19T12:34:37;97579.36;;;1.61;100.00
23899;BME280;20544;50.018;20.010;2023-01-19T12:41:30;97579.53;;;1.60;100.00
23899;BME280;20544;50.018;20.010;2023-01-19T12:45:03;97577.81;;;1.51;100.00
23899;BME280;20544;50.018;20.010;2023-01-19T12:48:22;97571.88;;;1.40;100.00
23899;BME280;20544;50.018;20.010;2023-01-19T12:51:39;97578.75;;;1.41;100.00
23899;BME280;20544;50.018;20.010;2023-01-19T12:55:01;97585.62;;;1.42;100.00
23899;BME280;20544;50.018;20.010;2023-01-19T12:58:31;97579.00;;;1.30;100.00
23899;BME280;20544;50.018;20.010;2023-01-19T13:09:33;97583.30;;;1.39;100.00
23899;BME280;20544;50.018;20.010;2023-01-19T13:13:13;97586.52;;;1.33;100.00
23899;BME280;20544;50.018;20.010;2023-01-19T13:16:59;97587.64;;;1.31;100.00
23899;BME280;20544;50.018;20.010;2023-01-19T13:20:32;97587.88;;;1.19;100.00
23899;BME280;20544;50.018;20.010;2023-01-19T13:23:56;97579.37;;;1.17;100.00
23899;BME280;20544;50.018;20.010;2023-01-19T13:27:30;97581.94;;;1.09;100.00
23899;BME280;20544;50.018;20.010;2023-01-19T13:30:58;97591.65;;;0.99;100.00
23899;BME280;20544;50.018;20.010;2023-01-19T13:34:17;97588.52;;;0.95;100.00
23899;BME280;20544;50.018;20.010;2023-01-19T13:40:53;97603.94;;;0.88;100.00
23899;BME280;20544;50.018;20.010;2023-01-19T13:44:13;97612.36;;;0.82;100.00
23899;BME280;20544;50.018;20.010;2023-01-19T13:47:35;97615.50;;;0.86;100.00
23899;BME280;20544;50.018;20.010;2023-01-19T13:51:03;97625.34;;;0.92;100.00
23899;BME280;20544;50.018;20.010;2023-01-19T13:56:21;97632.13;;;0.85;100.00
23899;BME280;20544;50.018;20.010;2023-01-19T13:59:38;97642.07;;;0.81;100.00
23899;BME280;20544;50.018;20.010;2023-01-19T14:02:57;97646.77;;;0.77;100.00
23899;BME280;20544;50.018;20.010;2023-01-19T14:06:22;97650.02;;;0.79;100.00
23899;BME280;20544;50.018;20.010;2023-01-19T14:10:09;97658.70;;;0.80;100.00
23899;BME280;20544;50.018;20.010;2023-01-19T14:13:29;97656.62;;;0.84;100.00
23899;BME280;20544;50.018;20.010;2023-01-19T14:16:49;97661.69;;;0.85;100.00
23899;BME280;20544;50.018;20.010;2023-01-19T14:20:28;97655.78;;;0.83;100.00
23899;BME280;20544;50.018;20.010;2023-01-19T14:23:48;97650.86;;;0.80;100.00
23899;BME280;20544;50.018;20.010;2023-01-19T14:27:19;97665.03;;;0.77;100.00
23899;BME280;20544;50.018;20.010;2023-01-19T14:30:39;97661.74;;;0.75;100.00
23899;BME280;20544;50.018;20.010;2023-01-19T14:34:32;97665.47;;;0.73;100.00
23899;BME280;20544;50.018;20.010;2023-01-19T14:41:08;97671.42;;;0.65;100.00
23899;BME280;20544;50.018;20.010;2023-01-19T14:44:29;97667.16;;;0.64;100.00
23899;BME280;20544;50.018;20.010;2023-01-19T14:47:53;97665.23;;;0.66;100.00
23899;BME280;20544;50.018;20.010;2023-01-19T14:51:16;97675.22;;;0.71;100.00
23899;BME280;20544;50.018;20.010;2023-01-19T14:55:48;97669.95;;;0.80;100.00
23899;BME280;20544;50.018;20.010;2023-01-19T14:59:12;97679.42;;;0.82;100.00
23899;BME280;20544;50.018;20.010;2023-01-19T15:03:42;97675.55;;;0.86;100.00
23899;BME280;20544;50.018;20.010;2023-01-19T15:10:41;97691.89;;;0.88;100.00
23899;BME280;20544;50.018;20.010;2023-01-19T15:13:58;97694.51;;;0.88;100.00
23899;BME280;20544;50.018;20.010;2023-01-19T15:17:18;97701.91;;;0.92;100.00
23899;BME280;20544;50.018;20.010;2023-01-19T15:20:38;97701.38;;;0.89;100.00
23899;BME280;20544;50.018;20.010;2023-01-19T15:27:12;97707.41;;;0.89;100.00
23899;BME280;20544;50.018;20.010;2023-01-19T15:30:34;97710.33;;;0.86;100.00
23899;BME280;20544;50.018;20.010;2023-01-19T15:33:51;97716.46;;;0.95;100.00
23899;BME280;20544;50.018;20.010;2023-01-19T15:40:36;97715.03;;;1.01;100.00
23899;BME280;20544;50.018;20.010;2023-01-19T15:43:58;97722.49;;;0.95;100.00
23899;BME280;20544;50.018;20.010;2023-01-19T15:47:24;97728.25;;;0.99;100.00
23899;BME280;20544;50.018;20.010;2023-01-19T15:50:39;97724.52;;;1.02;100.00
23899;BME280;20544;50.018;20.010;2023-01-19T15:53:59;97728.78;;;1.03;100.00
23899;BME280;20544;50.018;20.010;2023-01-19T15:57:16;97728.40;;;0.98;100.00
23899;BME280;20544;50.018;20.010;2023-01-19T16:00:35;97728.67;;;0.94;100.00
23899;BME280;20544;50.018;20.010;2023-01-19T16:03:52;97725.53;;;0.91;100.00
23899;BME280;20544;50.018;20.010;2023-01-19T16:07:09;97731.59;;;0.91;100.00
23899;BME280;20544;50.018;20.010;2023-01-19T16:10:26;97732.70;;;0.89;100.00
23899;BME280;20544;50.018;20.010;2023-01-19T16:13:47;97735.02;;;0.92;100.00
23899;BME280;20544;50.018;20.010;2023-01-19T16:17:03;97735.02;;;0.92;100.00
23899;BME280;20544;50.018;20.010;2023-01-19T16:20:20;97732.70;;;0.89;100.00
23899;BME280;20544;50.018;20.010;2023-01-19T16:23:37;97736.13;;;0.89;100.00
23899;BME280;20544;50.018;20.010;2023-01-19T16:26:54;97739.00;;;0.96;100.00
23899;BME280;20544;50.018;20.010;2023-01-19T16:30:14;97743.53;;;0.94;100.00
23899;BME280;20544;50.018;20.010;2023-01-19T16:33:32;97747.80;;;0.95;100.00
23899;BME280;20544;50.018;20.010;2023-01-19T16:36:51;97745.03;;;0.96;100.00
23899;BME280;20544;50.018;20.010;2023-01-19T16:40:10;97746.68;;;0.98;100.00
23899;BME280;20544;50.018;20.010;2023-01-19T16:43:28;97746.19;;;0.84;100.00
23899;BME280;20544;50.018;20.010;2023-01-19T16:46:46;97751.88;;;0.70;100.00
23899;BME280;20544;50.018;20.010;2023-01-19T16:50:04;97744.73;;;0.72;100.00
23899;BME280;20544;50.018;20.010;2023-01-19T16:53:21;97752.30;;;0.75;100.00
23899;BME280;20544;50.018;20.010;2023-01-19T16:56:37;97756.59;;;0.66;100.00
23899;BME280;20544;50.018;20.010;2023-01-19T16:59:54;97758.90;;;0.69;100.00
23899;BME280;20544;50.018;20.010;2023-01-19T17:03:11;97757.52;;;0.75;100.00
23899;BME280;20544;50.018;20.010;2023-01-19T17:06:27;97753.10;;;0.75;100.00
23899;BME280;20544;50.018;20.010;2023-01-19T17:09:44;97755.71;;;0.75;100.00
23899;BME280;20544;50.018;20.010;2023-01-19T17:13:00;97748.07;;;0.64;100.00
23899;BME280;20544;50.018;20.010;2023-01-19T17:16:17;97752.03;;;0.68;100.00
23899;BME280;20544;50.018;20.010;2023-01-19T17:19:34;97754.79;;;0.67;100.00
23899;BME280;20544;50.018;20.010;2023-01-19T17:22:53;97757.52;;;0.75;100.00
23899;BME280;20544;50.018;20.010;2023-01-19T17:26:11;97759.97;;;0.76;100.00
23899;BME280;20544;50.018;20.010;2023-01-19T17:29:30;97772.88;;;0.78;100.00
23899;BME280;20544;50.018;20.010;2023-01-19T17:32:54;97769.30;;;0.79;100.00
23899;BME280;20544;50.018;20.010;2023-01-19T17:36:13;97789.08;;;0.82;100.00
23899;BME280;20544;50.018;20.010;2023-01-19T17:39:33;97788.15;;;0.73;100.00
23899;BME280;20544;50.018;20.010;2023-01-19T17:42:51;97787.46;;;0.71;100.00
23899;BME280;20544;50.018;20.010;2023-01-19T17:46:10;97780.89;;;0.67;100.00
23899;BME280;20544;50.018;20.010;2023-01-19T17:49:29;97785.81;;;0.70;100.00
23899;BME280;20544;50.018;20.010;2023-01-19T17:52:48;97786.34;;;0.73;100.00
23899;BME280;20544;50.018;20.010;2023-01-19T17:56:06;97789.27;;;0.70;100.00
23899;BME280;20544;50.018;20.010;2023-01-19T17:59:24;97789.27;;;0.70;100.00
23899;BME280;20544;50.018;20.010;2023-01-19T18:02:45;97785.54;;;0.73;100.00
23899;BME280;20544;50.018;20.010;2023-01-19T18:06:04;97786.50;;;0.72;100.00
23899;BME280;20544;50.018;20.010;2023-01-19T18:09:22;97787.46;;;0.71;100.00